sensor_id;sensor_type;location;lat;lon;timestamp;pressure;altitude;pressure_sealevel;temperature
68939;BMP180;59064;45.294;11.816;2023-03-04T00:01:39;101595.20;;;6.50
68939;BMP180;59064;45.294;11.816;2023-03-04T00:04:05;101598.40;;;6.50
68939;BMP180;59064;45.294;11.816;2023-03-04T00:06:30;101597.00;;;6.50
68939;BMP180;59064;45.294;11.816;2023-03-04T00:08:56;101598.20;;;6.50
68939;BMP180;59064;45.294;11.816;2023-03-04T00:11:22;101599.40;;;6.40
68939;BMP180;59064;45.294;11.816;2023-03-04T00:13:48;101599.40;;;6.40
68939;BMP180;59064;45.294;11.816;2023-03-04T00:16:14;101600.20;;;6.40
68939;BMP180;59064;45.294;11.816;2023-03-04T00:18:39;101598.40;;;6.40
68939;BMP180;59064;45.294;11.816;2023-03-04T00:21:05;101596.40;;;6.40
68939;BMP180;59064;45.294;11.816;2023-03-04T00:23:31;101596.40;;;6.50
68939;BMP180;59064;45.294;11.816;2023-03-04T00:25:57;101595.80;;;6.50
68939;BMP180;59064;45.294;11.816;2023-03-04T00:28:22;101598.00;;;6.56
68939;BMP180;59064;45.294;11.816;2023-03-04T00:30:48;101598.60;;;6.60
68939;BMP180;59064;45.294;11.816;2023-03-04T00:33:14;101597.60;;;6.60
68939;BMP180;59064;45.294;11.816;2023-03-04T00:35:40;101594.80;;;6.60
68939;BMP180;59064;45.294;11.816;2023-03-04T00:38:05;101597.00;;;6.60
68939;BMP180;59064;45.294;11.816;2023-03-04T00:40:31;101595.80;;;6.60
68939;BMP180;59064;45.294;11.816;2023-03-04T00:42:57;101598.60;;;6.68
68939;BMP180;59064;45.294;11.816;2023-03-04T00:45:22;101597.00;;;6.68
68939;BMP180;59064;45.294;11.816;2023-03-04T00:47:48;101596.60;;;6.60
68939;BMP180;59064;45.294;11.816;2023-03-04T00:50:14;101595.00;;;6.60
68939;BMP180;59064;45.294;11.816;2023-03-04T00:52:39;101597.20;;;6.60
68939;BMP180;59064;45.294;11.816;2023-03-04T00:55:06;101601.40;;;6.60
68939;BMP180;59064;45.294;11.816;2023-03-04T00:57:33;101600.20;;;6.60
68939;BMP180;59064;45.294;11.816;2023-03-04T00:59:59;101599.40;;;6.60
68939;BMP180;59064;45.294;11.816;2023-03-04T01:02:24;101598.00;;;6.56
68939;BMP180;59064;45.294;11.816;2023-03-04T01:04:50;101603.20;;;6.50
68939;BMP180;59064;45.294;11.816;2023-03-04T01:07:17;101600.20;;;6.40
68939;BMP180;59064;45.294;11.816;2023-03-04T01:09:42;101601.00;;;6.30
68939;BMP180;59064;45.294;11.816;2023-03-04T01:12:08;101596.00;;;6.28
68939;BMP180;59064;45.294;11.816;2023-03-04T01:14:34;101595.00;;;6.30
68939;BMP180;59064;45.294;11.816;2023-03-04T01:17:00;101594.80;;;6.30
68939;BMP180;59064;45.294;11.816;2023-03-04T01:19:25;101593.00;;;6.30
68939;BMP180;59064;45.294;11.816;2023-03-04T01:21:51;101587.60;;;6.30
68939;BMP180;59064;45.294;11.816;2023-03-04T01:24:17;101588.00;;;6.20
68939;BMP180;59064;45.294;11.816;2023-03-04T01:26:43;101585.60;;;6.20
68939;BMP180;59064;45.294;11.816;2023-03-04T01:29:08;101583.60;;;6.20
68939;BMP180;59064;45.294;11.816;2023-03-04T01:31:34;101576.20;;;6.20
68939;BMP180;59064;45.294;11.816;2023-03-04T01:34:00;101574.20;;;6.20
68939;BMP180;59064;45.294;11.816;2023-03-04T01:36:25;101569.20;;;6.10
68939;BMP180;59064;45.294;11.816;2023-03-04T01:38:51;101568.40;;;6.10
68939;BMP180;59064;45.294;11.816;2023-03-04T01:41:24;101568.40;;;6.10
68939;BMP180;59064;45.294;11.816;2023-03-04T01:43:50;101565.00;;;6.10
68939;BMP180;59064;45.294;11.816;2023-03-04T01:46:16;101563.80;;;6.10
68939;BMP180;59064;45.294;11.816;2023-03-04T01:48:43;101565.20;;;6.00
68939;BMP180;59064;45.294;11.816;2023-03-04T01:51:17;101561.80;;;5.94
68939;BMP180;59064;45.294;11.816;2023-03-04T01:53:46;101557.20;;;5.98
68939;BMP180;59064;45.294;11.816;2023-03-04T01:56:18;101557.80;;;6.00
68939;BMP180;59064;45.294;11.816;2023-03-04T01:58:44;101554.40;;;5.90
68939;BMP180;59064;45.294;11.816;2023-03-04T02:01:16;101557.20;;;5.88
68939;BMP180;59064;45.294;11.816;2023-03-04T02:03:42;101555.40;;;5.80
68939;BMP180;59064;45.294;11.816;2023-03-04T02:06:07;101555.00;;;5.80
68939;BMP180;59064;45.294;11.816;2023-03-04T02:08:33;101542.40;;;5.80
68939;BMP180;59064;45.294;11.816;2023-03-04T02:10:59;101543.00;;;5.80
68939;BMP180;59064;45.294;11.816;2023-03-04T02:13:25;101537.60;;;5.80
68939;BMP180;59064;45.294;11.816;2023-03-04T02:15:50;101534.00;;;5.80
68939;BMP180;59064;45.294;11.816;2023-03-04T02:18:22;101528.00;;;5.80
68939;BMP180;59064;45.294;11.816;2023-03-04T02:26:31;101529.80;;;5.90
68939;BMP180;59064;45.294;11.816;2023-03-04T02:28:59;101519.20;;;5.90
68939;BMP180;59064;45.294;11.816;2023-03-04T02:34:06;101517.60;;;6.00
68939;BMP180;59064;45.294;11.816;2023-03-04T02:36:35;101514.20;;;6.00
68939;BMP180;59064;45.294;11.816;2023-03-04T02:39:11;101517.20;;;6.00
68939;BMP180;59064;45.294;11.816;2023-03-04T02:41:37;101514.80;;;5.90
68939;BMP180;59064;45.294;11.816;2023-03-04T02:44:18;101517.00;;;5.80
68939;BMP180;59064;45.294;11.816;2023-03-04T02:46:45;101515.40;;;5.76
68939;BMP180;59064;45.294;11.816;2023-03-04T02:49:11;101514.80;;;5.70
68939;BMP180;59064;45.294;11.816;2023-03-04T02:51:37;101519.00;;;5.60
68939;BMP180;59064;45.294;11.816;2023-03-04T02:54:03;101519.80;;;5.60
68939;BMP180;59064;45.294;11.816;2023-03-04T02:56:29;101516.60;;;5.50
68939;BMP180;59064;45.294;11.816;2023-03-04T02:58:55;101520.80;;;5.50
68939;BMP180;59064;45.294;11.816;2023-03-04T03:01:20;101516.00;;;5.44
68939;BMP180;59064;45.294;11.816;2023-03-04T03:03:46;101515.40;;;5.40
68939;BMP180;59064;45.294;11.816;2023-03-04T03:06:12;101510.20;;;5.40
68939;BMP180;59064;45.294;11.816;2023-03-04T03:08:37;101513.60;;;5.50
68939;BMP180;59064;45.294;11.816;2023-03-04T03:11:03;101508.40;;;5.60
68939;BMP180;59064;45.294;11.816;2023-03-04T03:13:29;101509.40;;;5.60
68939;BMP180;59064;45.294;11.816;2023-03-04T03:15:55;101510.80;;;5.60
68939;BMP180;59064;45.294;11.816;2023-03-04T03:18:20;101507.00;;;5.52
68939;BMP180;59064;45.294;11.816;2023-03-04T03:20:46;101510.60;;;5.50
68939;BMP180;59064;45.294;11.816;2023-03-04T03:23:12;101502.60;;;5.46
68939;BMP180;59064;45.294;11.816;2023-03-04T03:25:37;101506.40;;;5.40
68939;BMP180;59064;45.294;11.816;2023-03-04T03:28:03;101498.80;;;5.40
68939;BMP180;59064;45.294;11.816;2023-03-04T03:30:29;101494.60;;;5.40
68939;BMP180;59064;45.294;11.816;2023-03-04T03:32:55;101495.80;;;5.40
68939;BMP180;59064;45.294;11.816;2023-03-04T03:35:21;101498.60;;;5.40
68939;BMP180;59064;45.294;11.816;2023-03-04T03:37:46;101495.20;;;5.40
68939;BMP180;59064;45.294;11.816;2023-03-04T03:40:14;101497.00;;;5.40
68939;BMP180;59064;45.294;11.816;2023-03-04T03:42:39;101498.80;;;5.48
68939;BMP180;59064;45.294;11.816;2023-03-04T03:45:06;101494.40;;;5.40
68939;BMP180;59064;45.294;11.816;2023-03-04T03:47:32;101488.80;;;5.40
68939;BMP180;59064;45.294;11.816;2023-03-04T03:49:57;101490.80;;;5.40
68939;BMP180;59064;45.294;11.816;2023-03-04T03:52:23;101489.40;;;5.30
68939;BMP180;59064;45.294;11.816;2023-03-04T03:54:50;101495.00;;;5.22
68939;BMP180;59064;45.294;11.816;2023-03-04T03:57:15;101485.20;;;5.22
68939;BMP180;59064;45.294;11.816;2023-03-04T03:59:41;101487.80;;;5.30
68939;BMP180;59064;45.294;11.816;2023-03-04T04:02:07;101487.00;;;5.30
68939;BMP180;59064;45.294;11.816;2023-03-04T04:04:32;101486.60;;;5.30
68939;BMP180;59064;45.294;11.816;2023-03-04T04:06:58;101484.00;;;5.30
68939;BMP180;59064;45.294;11.816;2023-03-04T04:09:24;101483.40;;;5.30
68939;BMP180;59064;45.294;11.816;2023-03-04T04:11:49;101483.60;;;5.20
68939;BMP180;59064;45.294;11.816;2023-03-04T04:14:15;101482.20;;;5.10
68939;BMP180;59064;45.294;11.816;2023-03-04T04:16:41;101480.80;;;5.10
68939;BMP180;59064;45.294;11.816;2023-03-04T04:19:07;101483.00;;;5.08
68939;BMP180;59064;45.294;11.816;2023-03-04T04:21:32;101482.80;;;5.00
68939;BMP180;59064;45.294;11.816;2023-03-04T04:23:58;101486.40;;;5.00
68939;BMP180;59064;45.294;11.816;2023-03-04T04:26:24;101486.20;;;4.90
68939;BMP180;59064;45.294;11.816;2023-03-04T04:28:49;101492.20;;;4.90
68939;BMP180;59064;45.294;11.816;2023-03-04T04:31:15;101493.20;;;4.80
68939;BMP180;59064;45.294;11.816;2023-03-04T04:33:41;101490.20;;;4.70
68939;BMP180;59064;45.294;11.816;2023-03-04T04:36:12;101488.80;;;4.70
68939;BMP180;59064;45.294;11.816;2023-03-04T04:38:38;101495.80;;;4.70
68939;BMP180;59064;45.294;11.816;2023-03-04T04:41:04;101492.80;;;4.70
68939;BMP180;59064;45.294;11.816;2023-03-04T04:43:30;101493.80;;;4.68
68939;BMP180;59064;45.294;11.816;2023-03-04T04:45:58;101490.40;;;4.70
68939;BMP180;59064;45.294;11.816;2023-03-04T04:48:24;101501.00;;;4.70
68939;BMP180;59064;45.294;11.816;2023-03-04T04:50:54;101497.40;;;4.70
68939;BMP180;59064;45.294;11.816;2023-03-04T04:53:20;101499.40;;;4.78
68939;BMP180;59064;45.294;11.816;2023-03-04T04:55:46;101500.20;;;4.80
68939;BMP180;59064;45.294;11.816;2023-03-04T04:58:12;101495.00;;;4.80
68939;BMP180;59064;45.294;11.816;2023-03-04T05:00:38;101497.80;;;4.82
68939;BMP180;59064;45.294;11.816;2023-03-04T05:03:03;101495.20;;;4.90
68939;BMP180;59064;45.294;11.816;2023-03-04T05:05:29;101495.80;;;4.90
68939;BMP180;59064;45.294;11.816;2023-03-04T05:07:54;101497.80;;;5.00
68939;BMP180;59064;45.294;11.816;2023-03-04T05:10:20;101495.00;;;5.02
68939;BMP180;59064;45.294;11.816;2023-03-04T05:12:46;101492.00;;;5.08
68939;BMP180;59064;45.294;11.816;2023-03-04T05:15:11;101494.60;;;5.00
68939;BMP180;59064;45.294;11.816;2023-03-04T05:17:37;101489.20;;;5.02
68939;BMP180;59064;45.294;11.816;2023-03-04T05:20:03;101486.40;;;5.10
68939;BMP180;59064;45.294;11.816;2023-03-04T05:22:31;101491.00;;;5.10
68939;BMP180;59064;45.294;11.816;2023-03-04T05:24:56;101496.40;;;5.10
68939;BMP180;59064;45.294;11.816;2023-03-04T05:27:22;101495.60;;;5.00
68939;BMP180;59064;45.294;11.816;2023-03-04T05:29:48;101495.60;;;5.00
68939;BMP180;59064;45.294;11.816;2023-03-04T05:32:13;101492.40;;;4.98
68939;BMP180;59064;45.294;11.816;2023-03-04T05:34:39;101494.60;;;5.00
68939;BMP180;59064;45.294;11.816;2023-03-04T05:37:05;101496.40;;;5.00
68939;BMP180;59064;45.294;11.816;2023-03-04T05:39:32;101494.00;;;5.00
68939;BMP180;59064;45.294;11.816;2023-03-04T05:41:57;101493.80;;;5.00
68939;BMP180;59064;45.294;11.816;2023-03-04T05:44:23;101490.40;;;5.00
68939;BMP180;59064;45.294;11.816;2023-03-04T05:46:48;101495.00;;;5.00
68939;BMP180;59064;45.294;11.816;2023-03-04T05:49:14;101494.60;;;5.00
68939;BMP180;59064;45.294;11.816;2023-03-04T05:51:40;101494.40;;;5.00
68939;BMP180;59064;45.294;11.816;2023-03-04T05:54:05;101500.40;;;5.04
68939;BMP180;59064;45.294;11.816;2023-03-04T05:56:31;101501.60;;;5.04
68939;BMP180;59064;45.294;11.816;2023-03-04T05:58:58;101501.00;;;5.02
68939;BMP180;59064;45.294;11.816;2023-03-04T06:01:25;101502.40;;;5.00
68939;BMP180;59064;45.294;11.816;2023-03-04T06:03:50;101505.60;;;5.00
68939;BMP180;59064;45.294;11.816;2023-03-04T06:06:16;101501.60;;;5.00
68939;BMP180;59064;45.294;11.816;2023-03-04T06:08:42;101499.20;;;5.04
68939;BMP180;59064;45.294;11.816;2023-03-04T06:11:08;101502.80;;;5.10
68939;BMP180;59064;45.294;11.816;2023-03-04T06:13:34;101505.80;;;5.10
68939;BMP180;59064;45.294;11.816;2023-03-04T06:16:00;101501.80;;;5.20
68939;BMP180;59064;45.294;11.816;2023-03-04T06:18:27;101510.00;;;5.24
68939;BMP180;59064;45.294;11.816;2023-03-04T06:20:59;101507.00;;;5.30
68939;BMP180;59064;45.294;11.816;2023-03-04T06:23:25;101509.20;;;5.42
68939;BMP180;59064;45.294;11.816;2023-03-04T06:25:53;101506.80;;;5.52
68939;BMP180;59064;45.294;11.816;2023-03-04T06:28:20;101505.20;;;5.66
68939;BMP180;59064;45.294;11.816;2023-03-04T06:30:46;101507.60;;;5.80
68939;BMP180;59064;45.294;11.816;2023-03-04T06:33:11;101508.40;;;5.90
68939;BMP180;59064;45.294;11.816;2023-03-04T06:35:37;101512.40;;;6.00
68939;BMP180;59064;45.294;11.816;2023-03-04T06:38:03;101516.00;;;6.10
68939;BMP180;59064;45.294;11.816;2023-03-04T06:40:28;101517.20;;;6.20
68939;BMP180;59064;45.294;11.816;2023-03-04T06:42:54;101515.40;;;6.30
68939;BMP180;59064;45.294;11.816;2023-03-04T06:45:20;101515.40;;;6.40
68939;BMP180;59064;45.294;11.816;2023-03-04T06:47:45;101517.20;;;6.50
68939;BMP180;59064;45.294;11.816;2023-03-04T06:50:12;101514.60;;;6.60
68939;BMP180;59064;45.294;11.816;2023-03-04T06:52:39;101518.20;;;6.70
68939;BMP180;59064;45.294;11.816;2023-03-04T06:55:06;101519.00;;;6.80
68939;BMP180;59064;45.294;11.816;2023-03-04T06:57:32;101519.60;;;6.90
68939;BMP180;59064;45.294;11.816;2023-03-04T06:59:58;101511.20;;;7.00
68939;BMP180;59064;45.294;11.816;2023-03-04T07:02:24;101518.40;;;7.20
68939;BMP180;59064;45.294;11.816;2023-03-04T07:04:50;101521.40;;;7.30
68939;BMP180;59064;45.294;11.816;2023-03-04T07:07:15;101522.80;;;7.50
68939;BMP180;59064;45.294;11.816;2023-03-04T07:09:41;101525.40;;;7.70
68939;BMP180;59064;45.294;11.816;2023-03-04T07:12:07;101524.20;;;7.80
68939;BMP180;59064;45.294;11.816;2023-03-04T07:14:32;101527.20;;;8.00
68939;BMP180;59064;45.294;11.816;2023-03-04T07:16:58;101522.40;;;8.10
68939;BMP180;59064;45.294;11.816;2023-03-04T07:19:24;101522.40;;;8.20
68939;BMP180;59064;45.294;11.816;2023-03-04T07:21:49;101523.40;;;8.30
68939;BMP180;59064;45.294;11.816;2023-03-04T07:24:15;101527.40;;;8.40
68939;BMP180;59064;45.294;11.816;2023-03-04T07:26:41;101523.80;;;8.50
68939;BMP180;59064;45.294;11.816;2023-03-04T07:29:06;101527.60;;;8.60
68939;BMP180;59064;45.294;11.816;2023-03-04T07:31:34;101524.20;;;8.76
68939;BMP180;59064;45.294;11.816;2023-03-04T07:34:04;101527.60;;;8.92
68939;BMP180;59064;45.294;11.816;2023-03-04T07:36:31;101529.60;;;9.10
68939;BMP180;59064;45.294;11.816;2023-03-04T07:38:57;101530.40;;;9.24
68939;BMP180;59064;45.294;11.816;2023-03-04T07:41:25;101526.00;;;9.40
68939;BMP180;59064;45.294;11.816;2023-03-04T07:43:51;101530.40;;;9.50
68939;BMP180;59064;45.294;11.816;2023-03-04T07:46:18;101531.00;;;9.60
68939;BMP180;59064;45.294;11.816;2023-03-04T07:48:44;101531.20;;;9.74
68939;BMP180;59064;45.294;11.816;2023-03-04T07:51:17;101533.60;;;9.90
68939;BMP180;59064;45.294;11.816;2023-03-04T07:53:46;101536.80;;;10.08
68939;BMP180;59064;45.294;11.816;2023-03-04T07:56:17;101536.80;;;10.16
68939;BMP180;59064;45.294;11.816;2023-03-04T07:58:44;101530.80;;;10.30
68939;BMP180;59064;45.294;11.816;2023-03-04T08:01:23;101532.00;;;10.50
68939;BMP180;59064;45.294;11.816;2023-03-04T08:03:49;101532.40;;;10.72
68939;BMP180;59064;45.294;11.816;2023-03-04T08:06:16;101533.80;;;10.90
68939;BMP180;59064;45.294;11.816;2023-03-04T08:08:44;101529.20;;;11.00
68939;BMP180;59064;45.294;11.816;2023-03-04T08:11:14;101533.80;;;11.10
68939;BMP180;59064;45.294;11.816;2023-03-04T08:13:41;101535.80;;;11.28
68939;BMP180;59064;45.294;11.816;2023-03-04T08:16:08;101529.00;;;11.40
68939;BMP180;59064;45.294;11.816;2023-03-04T08:18:35;101532.80;;;11.40
68939;BMP180;59064;45.294;11.816;2023-03-04T08:21:00;101533.40;;;11.54
68939;BMP180;59064;45.294;11.816;2023-03-04T08:23:26;101534.60;;;11.66
68939;BMP180;59064;45.294;11.816;2023-03-04T08:25:52;101533.60;;;11.80
68939;BMP180;59064;45.294;11.816;2023-03-04T08:28:18;101533.80;;;12.00
68939;BMP180;59064;45.294;11.816;2023-03-04T08:30:44;101529.80;;;12.10
68939;BMP180;59064;45.294;11.816;2023-03-04T08:33:10;101534.00;;;12.12
68939;BMP180;59064;45.294;11.816;2023-03-04T08:35:38;101530.60;;;12.20
68939;BMP180;59064;45.294;11.816;2023-03-04T08:38:05;101526.20;;;12.34
68939;BMP180;59064;45.294;11.816;2023-03-04T08:40:31;101528.80;;;12.50
68939;BMP180;59064;45.294;11.816;2023-03-04T08:42:57;101531.20;;;12.52
68939;BMP180;59064;45.294;11.816;2023-03-04T08:45:23;101530.60;;;12.68
68939;BMP180;59064;45.294;11.816;2023-03-04T08:47:50;101529.80;;;12.80
68939;BMP180;59064;45.294;11.816;2023-03-04T08:50:16;101527.40;;;12.88
68939;BMP180;59064;45.294;11.816;2023-03-04T08:52:41;101525.40;;;12.90
68939;BMP180;59064;45.294;11.816;2023-03-04T08:55:07;101528.00;;;13.00
68939;BMP180;59064;45.294;11.816;2023-03-04T08:57:33;101524.20;;;13.10
68939;BMP180;59064;45.294;11.816;2023-03-04T08:59:59;101520.40;;;13.20
68939;BMP180;59064;45.294;11.816;2023-03-04T09:02:24;101524.00;;;13.32
68939;BMP180;59064;45.294;11.816;2023-03-04T09:04:50;101525.00;;;13.50
68939;BMP180;59064;45.294;11.816;2023-03-04T09:07:16;101521.40;;;13.50
68939;BMP180;59064;45.294;11.816;2023-03-04T09:09:41;101523.40;;;13.50
68939;BMP180;59064;45.294;11.816;2023-03-04T09:12:07;101518.20;;;13.60
68939;BMP180;59064;45.294;11.816;2023-03-04T09:14:34;101524.40;;;13.70
68939;BMP180;59064;45.294;11.816;2023-03-04T09:17:02;101518.80;;;13.80
68939;BMP180;59064;45.294;11.816;2023-03-04T09:19:28;101524.00;;;13.90
68939;BMP180;59064;45.294;11.816;2023-03-04T09:21:54;101524.80;;;14.04
68939;BMP180;59064;45.294;11.816;2023-03-04T09:24:20;101521.20;;;14.24
68939;BMP180;59064;45.294;11.816;2023-03-04T09:26:50;101521.20;;;14.20
68939;BMP180;59064;45.294;11.816;2023-03-04T09:29:16;101523.40;;;14.36
68939;BMP180;59064;45.294;11.816;2023-03-04T09:31:42;101523.20;;;14.60
68939;BMP180;59064;45.294;11.816;2023-03-04T09:34:09;101522.60;;;14.50
68939;BMP180;59064;45.294;11.816;2023-03-04T09:36:35;101520.00;;;14.50
68939;BMP180;59064;45.294;11.816;2023-03-04T09:39:02;101524.00;;;14.68
68939;BMP180;59064;45.294;11.816;2023-03-04T09:41:41;101523.80;;;14.70
68939;BMP180;59064;45.294;11.816;2023-03-04T09:46:51;101521.60;;;15.10
68939;BMP180;59064;45.294;11.816;2023-03-04T09:49:20;101524.80;;;15.30
68939;BMP180;59064;45.294;11.816;2023-03-04T09:52:13;101530.00;;;15.30
68939;BMP180;59064;45.294;11.816;2023-03-04T09:58:43;101516.20;;;15.50
68939;BMP180;59064;45.294;11.816;2023-03-04T10:04:40;101524.20;;;16.10
68939;BMP180;59064;45.294;11.816;2023-03-04T10:07:24;101522.80;;;16.30
68939;BMP180;59064;45.294;11.816;2023-03-04T10:10:13;101518.00;;;16.10
68939;BMP180;59064;45.294;11.816;2023-03-04T10:12:42;101515.80;;;16.02
68939;BMP180;59064;45.294;11.816;2023-03-04T10:15:38;101511.80;;;15.90
68939;BMP180;59064;45.294;11.816;2023-03-04T10:18:23;101513.80;;;15.90
68939;BMP180;59064;45.294;11.816;2023-03-04T10:23:28;101504.40;;;16.20
68939;BMP180;59064;45.294;11.816;2023-03-04T10:25:54;101506.20;;;16.46
68939;BMP180;59064;45.294;11.816;2023-03-04T10:28:29;101507.00;;;16.52
68939;BMP180;59064;45.294;11.816;2023-03-04T10:33:47;101502.20;;;16.78
68939;BMP180;59064;45.294;11.816;2023-03-04T10:39:04;101496.20;;;16.80
68939;BMP180;59064;45.294;11.816;2023-03-04T10:41:31;101489.20;;;16.64
68939;BMP180;59064;45.294;11.816;2023-03-04T10:46:43;101485.60;;;16.80
68939;BMP180;59064;45.294;11.816;2023-03-04T10:49:12;101483.20;;;17.00
68939;BMP180;59064;45.294;11.816;2023-03-04T10:54:49;101478.40;;;16.50
68939;BMP180;59064;45.294;11.816;2023-03-04T10:59:57;101471.40;;;16.40
68939;BMP180;59064;45.294;11.816;2023-03-04T11:02:35;101470.80;;;16.74
68939;BMP180;59064;45.294;11.816;2023-03-04T11:05:22;101470.00;;;17.08
68939;BMP180;59064;45.294;11.816;2023-03-04T11:07:51;101470.60;;;17.32
68939;BMP180;59064;45.294;11.816;2023-03-04T11:10:20;101470.20;;;17.60
68939;BMP180;59064;45.294;11.816;2023-03-04T11:15:29;101458.00;;;17.60
68939;BMP180;59064;45.294;11.816;2023-03-04T11:18:03;101455.00;;;17.30
68939;BMP180;59064;45.294;11.816;2023-03-04T11:20:41;101448.40;;;17.50
68939;BMP180;59064;45.294;11.816;2023-03-04T11:26:03;101443.20;;;17.60
68939;BMP180;59064;45.294;11.816;2023-03-04T11:28:48;101439.80;;;17.52
68939;BMP180;59064;45.294;11.816;2023-03-04T11:31:21;101438.20;;;17.42
68939;BMP180;59064;45.294;11.816;2023-03-04T11:33:56;101436.40;;;17.40
68939;BMP180;59064;45.294;11.816;2023-03-04T11:36:44;101429.40;;;17.50
68939;BMP180;59064;45.294;11.816;2023-03-04T11:39:37;101426.60;;;17.68
68939;BMP180;59064;45.294;11.816;2023-03-04T11:45:16;101420.00;;;18.40
68939;BMP180;59064;45.294;11.816;2023-03-04T11:47:56;101416.40;;;18.70
68939;BMP180;59064;45.294;11.816;2023-03-04T11:56:36;101403.40;;;18.72
68939;BMP180;59064;45.294;11.816;2023-03-04T12:02:37;101389.60;;;18.90
68939;BMP180;59064;45.294;11.816;2023-03-04T12:05:43;101386.20;;;19.10
68939;BMP180;59064;45.294;11.816;2023-03-04T12:14:59;101370.80;;;19.56
68939;BMP180;59064;45.294;11.816;2023-03-04T12:24:37;101357.20;;;19.60
68939;BMP180;59064;45.294;11.816;2023-03-04T12:48:22;101315.80;;;18.90
68939;BMP180;59064;45.294;11.816;2023-03-04T12:51:35;101318.20;;;19.22
68939;BMP180;59064;45.294;11.816;2023-03-04T12:59:25;101308.40;;;19.28
68939;BMP180;59064;45.294;11.816;2023-03-04T13:10:21;101303.00;;;19.62
68939;BMP180;59064;45.294;11.816;2023-03-04T13:12:54;101304.00;;;19.80
68939;BMP180;59064;45.294;11.816;2023-03-04T13:17:49;101297.00;;;20.06
68939;BMP180;59064;45.294;11.816;2023-03-04T13:20:36;101295.80;;;20.26
68939;BMP180;59064;45.294;11.816;2023-03-04T13:25:48;101288.00;;;20.34
68939;BMP180;59064;45.294;11.816;2023-03-04T13:28:30;101283.60;;;20.44
68939;BMP180;59064;45.294;11.816;2023-03-04T13:51:34;101262.40;;;20.10
68939;BMP180;59064;45.294;11.816;2023-03-04T13:57:16;101251.60;;;19.32
68939;BMP180;59064;45.294;11.816;2023-03-04T13:59:53;101250.80;;;19.20
68939;BMP180;59064;45.294;11.816;2023-03-04T14:02:22;101248.20;;;19.42
68939;BMP180;59064;45.294;11.816;2023-03-04T14:07:35;101244.60;;;20.34
68939;BMP180;59064;45.294;11.816;2023-03-04T14:12:44;101239.80;;;21.22
68939;BMP180;59064;45.294;11.816;2023-03-04T14:15:28;101243.00;;;21.40
68939;BMP180;59064;45.294;11.816;2023-03-04T14:17:57;101235.20;;;21.10
68939;BMP180;59064;45.294;11.816;2023-03-04T14:20:34;101231.20;;;20.92
68939;BMP180;59064;45.294;11.816;2023-03-04T14:26:13;101229.40;;;21.00
68939;BMP180;59064;45.294;11.816;2023-03-04T14:28:51;101224.00;;;20.80
68939;BMP180;59064;45.294;11.816;2023-03-04T14:31:23;101217.40;;;20.90
68939;BMP180;59064;45.294;11.816;2023-03-04T14:33:52;101215.20;;;21.00
68939;BMP180;59064;45.294;11.816;2023-03-04T14:36:24;101211.40;;;20.70
68939;BMP180;59064;45.294;11.816;2023-03-04T14:39:03;101213.00;;;20.80
68939;BMP180;59064;45.294;11.816;2023-03-04T14:44:10;101202.60;;;20.68
68939;BMP180;59064;45.294;11.816;2023-03-04T14:46:52;101197.80;;;20.34
68939;BMP180;59064;45.294;11.816;2023-03-04T14:49:19;101195.20;;;20.62
68939;BMP180;59064;45.294;11.816;2023-03-04T14:51:53;101194.60;;;20.84
68939;BMP180;59064;45.294;11.816;2023-03-04T14:54:34;101196.00;;;20.82
68939;BMP180;59064;45.294;11.816;2023-03-04T14:57:19;101189.00;;;20.60
68939;BMP180;59064;45.294;11.816;2023-03-04T14:59:46;101187.00;;;20.76
68939;BMP180;59064;45.294;11.816;2023-03-04T15:05:20;101181.40;;;20.40
68939;BMP180;59064;45.294;11.816;2023-03-04T15:07:54;101181.00;;;20.30
68939;BMP180;59064;45.294;11.816;2023-03-04T15:10:29;101177.20;;;20.30
68939;BMP180;59064;45.294;11.816;2023-03-04T15:12:58;101178.80;;;20.20
68939;BMP180;59064;45.294;11.816;2023-03-04T15:15:45;101176.60;;;20.30
68939;BMP180;59064;45.294;11.816;2023-03-04T15:18:20;101175.20;;;20.30
68939;BMP180;59064;45.294;11.816;2023-03-04T15:21:04;101171.80;;;20.40
68939;BMP180;59064;45.294;11.816;2023-03-04T15:23:32;101166.60;;;20.30
68939;BMP180;59064;45.294;11.816;2023-03-04T15:26:03;101165.00;;;20.30
68939;BMP180;59064;45.294;11.816;2023-03-04T15:28:36;101167.40;;;20.50
68939;BMP180;59064;45.294;11.816;2023-03-04T15:31:04;101163.20;;;20.50
68939;BMP180;59064;45.294;11.816;2023-03-04T15:33:31;101158.80;;;20.52
68939;BMP180;59064;45.294;11.816;2023-03-04T15:36:01;101158.20;;;20.60
68939;BMP180;59064;45.294;11.816;2023-03-04T15:38:28;101158.00;;;20.40
68939;BMP180;59064;45.294;11.816;2023-03-04T15:40:55;101159.80;;;20.48
68939;BMP180;59064;45.294;11.816;2023-03-04T15:43:22;101159.20;;;20.34
68939;BMP180;59064;45.294;11.816;2023-03-04T15:45:50;101161.00;;;20.20
68939;BMP180;59064;45.294;11.816;2023-03-04T15:48:17;101161.40;;;20.00
68939;BMP180;59064;45.294;11.816;2023-03-04T15:50:58;101160.00;;;19.76
68939;BMP180;59064;45.294;11.816;2023-03-04T15:53:36;101159.60;;;19.70
68939;BMP180;59064;45.294;11.816;2023-03-04T15:56:04;101159.00;;;19.60
68939;BMP180;59064;45.294;11.816;2023-03-04T15:58:32;101161.80;;;19.60
68939;BMP180;59064;45.294;11.816;2023-03-04T16:00:58;101162.40;;;19.30
68939;BMP180;59064;45.294;11.816;2023-03-04T16:03:23;101156.20;;;19.00
68939;BMP180;59064;45.294;11.816;2023-03-04T16:05:50;101153.20;;;18.90
68939;BMP180;59064;45.294;11.816;2023-03-04T16:08:20;101154.60;;;18.80
68939;BMP180;59064;45.294;11.816;2023-03-04T16:10:47;101159.80;;;18.50
68939;BMP180;59064;45.294;11.816;2023-03-04T16:13:19;101155.20;;;18.30
68939;BMP180;59064;45.294;11.816;2023-03-04T16:15:45;101154.00;;;18.10
68939;BMP180;59064;45.294;11.816;2023-03-04T16:18:13;101159.00;;;17.84
68939;BMP180;59064;45.294;11.816;2023-03-04T16:20:43;101155.40;;;17.60
68939;BMP180;59064;45.294;11.816;2023-03-04T16:23:16;101155.00;;;17.40
68939;BMP180;59064;45.294;11.816;2023-03-04T16:25:44;101151.80;;;17.20